createdAt,value
2018-08-03T00:02:00.500Z,7.70
2018-08-03T00:04:32.592Z,7.92
2018-08-03T00:07:03.860Z,7.33
2018-08-03T00:09:35.295Z,7.70
2018-08-03T00:12:06.627Z,7.72
2018-08-03T00:14:38.068Z,7.92
2018-08-03T00:17:08.936Z,7.90
2018-08-03T00:19:40.361Z,7.80
2018-08-03T00:22:11.705Z,7.50
2018-08-03T00:24:43.173Z,8.05
2018-08-03T00:27:14.612Z,8.15
2018-08-03T00:29:46.014Z,8.48
2018-08-03T00:32:17.411Z,7.97
2018-08-03T00:34:48.595Z,8.65
2018-08-03T00:37:19.785Z,8.80
2018-08-03T00:39:50.730Z,7.95
2018-08-03T00:42:22.080Z,8.88
2018-08-03T00:44:52.834Z,10.32
2018-08-03T00:47:23.954Z,8.38
2018-08-03T00:49:55.222Z,8.60
2018-08-03T00:52:26.562Z,8.68
2018-08-03T00:54:57.756Z,8.73
2018-08-03T00:57:29.063Z,7.80
2018-08-03T01:00:00.577Z,8.88
2018-08-03T01:02:32.321Z,8.63
2018-08-03T01:05:03.826Z,9.48
2018-08-03T01:07:35.308Z,9.65
2018-08-03T01:10:06.623Z,8.68
2018-08-03T01:12:38.040Z,9.55
2018-08-03T01:15:09.494Z,13.45
2018-08-03T01:17:41.034Z,9.23
2018-08-03T01:20:12.522Z,8.83
2018-08-03T01:22:43.939Z,9.38
2018-08-03T01:25:15.331Z,9.58
2018-08-03T01:27:46.840Z,10.35
2018-08-03T01:30:18.123Z,9.03
2018-08-03T01:32:49.524Z,9.28
2018-08-03T01:35:21.049Z,9.80
2018-08-03T01:37:52.414Z,9.70
2018-08-03T01:40:23.904Z,10.35
2018-08-03T01:42:55.374Z,10.80
2018-08-03T01:45:26.884Z,10.05
2018-08-03T01:47:58.186Z,9.53
2018-08-03T01:50:29.579Z,9.48
2018-08-03T01:53:00.854Z,9.60
2018-08-03T01:55:32.511Z,11.60
2018-08-03T01:58:03.544Z,10.68
2018-08-03T02:00:34.674Z,10.00
2018-08-03T02:03:05.861Z,11.03
2018-08-03T02:05:37.295Z,10.55
2018-08-03T02:08:08.745Z,10.38
2018-08-03T02:10:40.084Z,11.40
2018-08-03T02:13:11.039Z,10.28
2018-08-03T02:15:42.451Z,11.22
2018-08-03T02:18:13.841Z,11.30
2018-08-03T02:20:45.394Z,11.38
2018-08-03T02:23:17.008Z,11.12
2018-08-03T02:25:48.484Z,10.55
2018-08-03T02:28:19.213Z,11.40
2018-08-03T02:30:50.365Z,10.75
2018-08-03T02:33:21.808Z,11.00
2018-08-03T02:35:53.293Z,11.43
2018-08-03T02:38:24.679Z,11.68
2018-08-03T02:40:56.115Z,11.38
2018-08-03T02:43:27.599Z,11.18
2018-08-03T02:45:58.968Z,12.82
2018-08-03T02:48:30.455Z,12.10
2018-08-03T02:51:01.978Z,11.73
2018-08-03T02:53:33.514Z,11.05
2018-08-03T02:56:04.902Z,11.33
2018-08-03T02:58:36.411Z,12.18
2018-08-03T03:01:07.850Z,12.28
2018-08-03T03:03:39.125Z,12.03
2018-08-03T03:06:10.519Z,12.78
2018-08-03T03:08:41.839Z,13.45
2018-08-03T03:11:13.597Z,11.97
2018-08-03T03:13:45.347Z,12.37
2018-08-03T03:16:16.775Z,13.28
2018-08-03T03:18:48.137Z,13.93
2018-08-03T03:21:19.383Z,12.43
2018-08-03T03:23:50.638Z,13.72
2018-08-03T03:26:22.085Z,12.20
2018-08-03T03:28:53.576Z,11.85
2018-08-03T03:31:24.874Z,12.80
2018-08-03T03:33:56.505Z,11.75
2018-08-03T03:36:27.968Z,12.37
2018-08-03T03:38:59.306Z,12.85
2018-08-03T03:41:30.766Z,12.50
2018-08-03T03:44:02.465Z,13.20
2018-08-03T03:46:33.903Z,13.50
2018-08-03T03:49:05.327Z,13.28
2018-08-03T03:51:37.139Z,14.07
2018-08-03T03:54:08.473Z,11.97
2018-08-03T03:56:39.988Z,12.28
2018-08-03T03:59:11.524Z,13.48
2018-08-03T04:01:43.095Z,12.13
2018-08-03T04:04:14.639Z,13.05
2018-08-03T04:06:46.032Z,12.55
2018-08-03T04:09:17.433Z,12.00
2018-08-03T04:11:48.176Z,12.15
2018-08-03T04:14:19.526Z,11.93
2018-08-03T04:16:50.915Z,16.23
2018-08-03T04:19:22.446Z,13.30
2018-08-03T04:21:53.910Z,11.60
2018-08-03T04:24:25.255Z,14.98
2018-08-03T04:26:56.788Z,10.93
2018-08-03T04:29:28.085Z,13.28
2018-08-03T04:31:59.445Z,10.40
2018-08-03T04:34:31.015Z,10.65
2018-08-03T04:37:02.212Z,9.98
2018-08-03T04:39:33.872Z,10.18
2018-08-03T04:42:05.792Z,10.88
2018-08-03T04:44:37.591Z,10.32
2018-08-03T04:47:08.961Z,10.53
2018-08-03T04:49:40.522Z,10.70
2018-08-03T04:52:12.310Z,11.00
2018-08-03T04:54:43.544Z,9.80
2018-08-03T04:57:15.100Z,10.48
2018-08-03T04:59:46.565Z,11.68
2018-08-03T05:02:18.212Z,19.35
2018-08-03T05:04:49.168Z,11.38
2018-08-03T05:07:20.634Z,17.57
2018-08-03T05:09:52.245Z,10.38
2018-08-03T05:12:23.691Z,13.58
2018-08-03T05:14:55.151Z,11.63
2018-08-03T05:17:26.443Z,11.65
2018-08-03T05:19:57.962Z,13.93
2018-08-03T05:22:29.340Z,10.90
2018-08-03T05:25:00.649Z,11.03
2018-08-03T05:27:32.234Z,10.45
2018-08-03T05:30:03.828Z,10.38
2018-08-03T05:32:35.243Z,10.60
2018-08-03T05:35:07.620Z,12.45
2018-08-03T05:37:39.132Z,10.68
2018-08-03T05:40:10.477Z,9.70
2018-08-03T05:42:41.840Z,12.10
2018-08-03T05:45:13.175Z,15.10
2018-08-03T05:47:44.551Z,16.42
2018-08-03T05:50:16.297Z,20.77
2018-08-03T05:52:47.839Z,18.52
2018-08-03T05:55:19.684Z,19.07
2018-08-03T05:57:50.609Z,15.23
2018-08-03T06:00:22.166Z,19.27
2018-08-03T06:02:53.729Z,19.85
2018-08-03T06:05:24.982Z,16.60
2018-08-03T06:07:57.120Z,16.67
2018-08-03T06:10:28.497Z,16.60
2018-08-03T06:12:59.983Z,16.27
2018-08-03T06:15:31.508Z,16.17
2018-08-03T06:18:03.376Z,16.42
2018-08-03T06:20:34.712Z,14.95
2018-08-03T06:23:06.282Z,14.80
2018-08-03T06:25:37.794Z,14.75
2018-08-03T06:28:09.100Z,28.17
2018-08-03T06:30:40.639Z,20.65
2018-08-03T06:33:12.221Z,18.05
2018-08-03T06:35:43.780Z,15.98
2018-08-03T06:38:15.186Z,17.55
2018-08-03T06:40:46.708Z,14.90
2018-08-03T06:43:18.180Z,16.07
2018-08-03T06:45:49.416Z,13.38
2018-08-03T06:48:20.796Z,13.70
2018-08-03T06:50:52.070Z,12.75
2018-08-03T06:53:23.498Z,13.88
2018-08-03T06:55:55.366Z,12.43
2018-08-03T06:58:26.585Z,12.50
2018-08-03T07:00:58.965Z,11.95
2018-08-03T07:03:30.541Z,14.05
2018-08-03T07:06:01.832Z,13.18
2018-08-03T07:08:33.390Z,10.95
2018-08-03T07:11:04.743Z,10.90
2018-08-03T07:13:36.284Z,12.37
2018-08-03T07:16:07.838Z,11.43
2018-08-03T07:18:39.367Z,12.30
2018-08-03T07:21:11.242Z,12.43
2018-08-03T07:23:42.686Z,11.10
2018-08-03T07:26:14.138Z,11.97
2018-08-03T07:28:45.527Z,11.63
2018-08-03T07:31:17.276Z,11.40
2018-08-03T07:33:49.336Z,12.55
2018-08-03T07:36:20.916Z,13.13
2018-08-03T07:38:52.774Z,12.30
2018-08-03T07:41:24.255Z,13.78
2018-08-03T07:43:55.560Z,13.40
2018-08-03T07:46:27.211Z,12.40
2018-08-03T07:48:58.612Z,13.32
2018-08-03T07:51:29.890Z,12.78
2018-08-03T07:54:01.548Z,12.78
2018-08-03T07:56:32.781Z,12.98
2018-08-03T07:59:04.496Z,14.80
2018-08-03T08:01:36.094Z,12.03
2018-08-03T08:04:07.296Z,11.55
2018-08-03T08:06:38.391Z,10.85
2018-08-03T08:09:12.058Z,11.22
2018-08-03T08:11:43.826Z,10.82
2018-08-03T08:14:15.244Z,9.85
2018-08-03T08:16:47.158Z,11.33
2018-08-03T08:19:18.291Z,10.80
2018-08-03T08:21:49.615Z,10.80
2018-08-03T08:24:20.980Z,13.00
2018-08-03T08:26:52.515Z,13.00
2018-08-03T08:29:24.255Z,11.28
2018-08-03T08:31:55.815Z,11.30
2018-08-03T08:34:27.403Z,11.70
2018-08-03T08:36:58.899Z,11.22
2018-08-03T08:39:30.433Z,10.95
2018-08-03T08:42:01.900Z,10.68
2018-08-03T08:44:33.100Z,9.88
2018-08-03T08:47:04.652Z,10.08
2018-08-03T08:49:35.944Z,10.68
2018-08-03T08:52:07.454Z,12.58
2018-08-03T08:54:39.118Z,10.63
2018-08-03T08:57:10.597Z,10.23
2018-08-03T08:59:41.942Z,10.95
2018-08-03T09:02:13.463Z,10.32
2018-08-03T09:04:45.711Z,11.00
2018-08-03T09:07:16.881Z,9.98
2018-08-03T09:09:48.263Z,10.35
2018-08-03T09:12:19.713Z,9.73
2018-08-03T09:14:51.168Z,10.20
2018-08-03T09:17:22.476Z,10.30
2018-08-03T09:19:54.007Z,10.43
2018-08-03T09:22:25.495Z,10.88
2018-08-03T09:24:56.934Z,11.18
2018-08-03T09:27:28.361Z,9.85
2018-08-03T09:29:59.643Z,12.10
2018-08-03T09:32:31.263Z,10.05
2018-08-03T09:35:02.729Z,9.85
2018-08-03T09:37:34.181Z,9.65
2018-08-03T09:40:05.850Z,10.70
2018-08-03T09:42:37.134Z,10.23
2018-08-03T09:45:08.735Z,10.40
2018-08-03T09:47:40.006Z,10.08
2018-08-03T09:50:11.607Z,11.45
2018-08-03T09:52:43.184Z,10.35
2018-08-03T09:55:14.831Z,10.98
2018-08-03T09:57:46.285Z,10.15
2018-08-03T10:00:18.221Z,11.35
2018-08-03T10:02:49.699Z,9.93
2018-08-03T10:05:21.165Z,10.32
2018-08-03T10:07:52.643Z,11.05
2018-08-03T10:10:24.131Z,11.18
2018-08-03T10:12:55.470Z,11.50
2018-08-03T10:15:26.789Z,10.68
2018-08-03T10:17:58.508Z,10.35
2018-08-03T10:20:30.062Z,10.70
2018-08-03T10:23:01.415Z,10.63
2018-08-03T10:25:32.957Z,12.13
2018-08-03T10:28:04.365Z,12.10
2018-08-03T10:30:35.799Z,11.90
2018-08-03T10:33:08.057Z,10.63
2018-08-03T10:35:39.511Z,12.82
2018-08-03T10:38:11.295Z,12.30
2018-08-03T10:40:42.875Z,11.63
2018-08-03T10:43:14.206Z,11.80
2018-08-03T10:45:45.733Z,11.48
2018-08-03T10:48:17.191Z,11.55
2018-08-03T10:50:48.807Z,11.53
2018-08-03T10:53:20.347Z,14.18
2018-08-03T10:55:51.734Z,11.35
2018-08-03T10:58:23.290Z,10.80
2018-08-03T11:00:54.778Z,11.28
2018-08-03T11:03:26.540Z,11.63
2018-08-03T11:05:58.039Z,11.88
2018-08-03T11:08:29.511Z,11.43
2018-08-03T11:11:00.760Z,13.10
2018-08-03T11:13:32.413Z,12.05
2018-08-03T11:16:03.756Z,11.80
2018-08-03T11:18:35.160Z,12.43
2018-08-03T11:21:06.721Z,11.53
2018-08-03T11:23:37.523Z,11.68
2018-08-03T11:26:09.156Z,12.68
2018-08-03T11:28:40.679Z,12.55
2018-08-03T11:31:12.038Z,12.45
2018-08-03T11:33:43.660Z,12.28
2018-08-03T11:36:15.484Z,15.23
2018-08-03T11:38:46.966Z,14.15
2018-08-03T11:41:18.427Z,13.15
2018-08-03T11:43:50.049Z,12.80
2018-08-03T11:46:21.360Z,11.90
2018-08-03T11:48:52.683Z,11.25
2018-08-03T11:51:24.090Z,11.80
2018-08-03T11:53:55.741Z,13.60
2018-08-03T11:56:27.086Z,11.83
2018-08-03T11:58:58.490Z,11.60
2018-08-03T12:01:29.773Z,11.75
2018-08-03T12:04:01.610Z,11.00
2018-08-03T12:06:33.096Z,12.68
2018-08-03T12:09:04.944Z,11.43
2018-08-03T12:11:36.152Z,11.20
2018-08-03T12:14:07.608Z,11.45
2018-08-03T12:16:38.840Z,10.88
2018-08-03T12:19:10.404Z,11.10
2018-08-03T12:21:42.068Z,11.65
2018-08-03T12:24:13.500Z,13.32
2018-08-03T12:26:44.977Z,12.47
2018-08-03T12:29:16.344Z,10.78
2018-08-03T12:31:47.902Z,11.12
2018-08-03T12:34:19.526Z,12.80
2018-08-03T12:36:51.144Z,13.10
2018-08-03T12:39:22.662Z,11.05
2018-08-03T12:41:54.090Z,11.83
2018-08-03T12:44:25.533Z,12.07
2018-08-03T12:46:56.900Z,10.85
2018-08-03T12:49:28.389Z,10.75
2018-08-03T12:51:59.665Z,10.93
2018-08-03T12:54:32.131Z,10.58
2018-08-03T12:57:03.785Z,11.68
2018-08-03T12:59:35.315Z,11.40
2018-08-03T13:02:06.801Z,11.38
2018-08-03T13:04:38.328Z,11.97
2018-08-03T13:07:10.185Z,11.63
2018-08-03T13:09:41.392Z,11.90
2018-08-03T13:12:12.855Z,11.05
2018-08-03T13:14:44.216Z,11.03
2018-08-03T13:17:15.577Z,10.93
2018-08-03T13:19:46.839Z,11.08
2018-08-03T13:22:23.361Z,11.68
2018-08-03T13:24:55.159Z,11.93
2018-08-03T13:27:26.610Z,11.68
2018-08-03T13:29:58.159Z,11.28
2018-08-03T13:32:29.596Z,10.88
2018-08-03T13:35:00.955Z,11.00
2018-08-03T13:37:32.497Z,9.88
2018-08-03T13:40:03.740Z,9.98
2018-08-03T13:42:35.259Z,11.03
2018-08-03T13:45:06.749Z,10.50
2018-08-03T13:47:38.310Z,10.55
2018-08-03T13:50:09.992Z,12.15
2018-08-03T13:52:41.391Z,10.72
2018-08-03T13:55:13.495Z,10.32
2018-08-03T13:57:44.949Z,10.68
2018-08-03T14:00:16.236Z,10.68
2018-08-03T14:02:47.860Z,10.75
2018-08-03T14:05:19.317Z,11.18
2018-08-03T14:07:51.103Z,10.45
2018-08-03T14:10:22.801Z,11.00
2018-08-03T14:12:54.793Z,9.88
2018-08-03T14:15:26.199Z,10.32
2018-08-03T14:17:57.490Z,11.33
2018-08-03T14:20:28.939Z,9.33
2018-08-03T14:23:00.473Z,10.28
2018-08-03T14:25:32.038Z,11.63
2018-08-03T14:28:03.496Z,11.45
2018-08-03T14:30:35.114Z,11.53
2018-08-03T14:33:06.752Z,10.95
2018-08-03T14:35:38.287Z,10.55
2018-08-03T14:38:10.220Z,11.75
2018-08-03T14:40:41.561Z,13.25
2018-08-03T14:43:13.098Z,14.47
2018-08-03T14:45:44.651Z,11.95
2018-08-03T14:48:16.051Z,10.72
2018-08-03T14:50:47.230Z,9.68
2018-08-03T14:53:18.900Z,11.28
2018-08-03T14:55:50.339Z,10.35
2018-08-03T14:58:21.947Z,9.83
2018-08-03T15:00:53.507Z,9.98
2018-08-03T15:03:25.026Z,10.30
2018-08-03T15:05:56.747Z,9.95
2018-08-03T15:08:27.944Z,19.30
2018-08-03T15:10:59.590Z,14.93
2018-08-03T15:13:31.460Z,20.02
2018-08-03T15:16:02.919Z,17.32
2018-08-03T15:18:34.862Z,19.35
2018-08-03T15:21:06.533Z,15.48
2018-08-03T15:23:38.072Z,19.60
2018-08-03T15:26:09.914Z,19.57
2018-08-03T15:28:41.893Z,18.92
2018-08-03T15:31:13.144Z,20.15
2018-08-03T15:33:44.516Z,20.52
2018-08-03T15:36:16.288Z,7.83
2018-08-03T15:38:47.872Z,5.92
2018-08-03T15:41:19.579Z,17.45
2018-08-03T15:43:51.264Z,15.15
2018-08-03T15:46:22.648Z,14.38
2018-08-03T15:48:54.124Z,17.10
2018-08-03T15:51:25.503Z,14.43
2018-08-03T15:53:57.285Z,13.93
2018-08-03T15:56:28.254Z,16.42
2018-08-03T15:58:59.676Z,13.38
2018-08-03T16:01:30.949Z,32.55
2018-08-03T16:04:02.304Z,20.85
2018-08-03T16:06:33.791Z,16.30
2018-08-03T16:09:07.148Z,14.87
2018-08-03T16:11:39.395Z,13.50
2018-08-03T16:14:11.274Z,12.93
2018-08-03T16:16:42.753Z,12.73
2018-08-03T16:19:14.233Z,12.03
2018-08-03T16:21:45.861Z,12.50
2018-08-03T16:24:17.476Z,14.38
2018-08-03T16:26:48.319Z,13.48
2018-08-03T16:29:19.800Z,12.95
2018-08-03T16:31:51.125Z,12.75
2018-08-03T16:34:22.882Z,13.28
2018-08-03T16:36:54.243Z,11.78
2018-08-03T16:39:25.744Z,12.93
2018-08-03T16:41:57.312Z,12.80
2018-08-03T16:44:28.711Z,12.13
2018-08-03T16:47:00.261Z,15.20
2018-08-03T16:49:32.074Z,13.32
2018-08-03T16:52:03.676Z,11.12
2018-08-03T16:54:35.518Z,9.88
2018-08-03T16:57:06.766Z,10.70
2018-08-03T16:59:38.387Z,10.25
2018-08-03T17:02:09.871Z,9.58
2018-08-03T17:04:41.398Z,11.43
2018-08-03T17:07:12.572Z,12.63
2018-08-03T17:09:44.193Z,10.82
2018-08-03T17:12:15.584Z,11.25
2018-08-03T17:14:47.215Z,11.60
2018-08-03T17:17:18.868Z,16.85
2018-08-03T17:19:50.565Z,18.15
2018-08-03T17:22:22.392Z,12.70
2018-08-03T17:24:53.855Z,12.23
2018-08-03T17:27:25.382Z,12.60
2018-08-03T17:29:56.928Z,11.93
2018-08-03T17:32:28.283Z,12.43
2018-08-03T17:34:59.541Z,13.65
2018-08-03T17:37:30.890Z,11.20
2018-08-03T17:40:02.363Z,12.28
2018-08-03T17:42:33.851Z,12.43
2018-08-03T17:45:05.439Z,11.63
2018-08-03T17:47:36.738Z,10.50
2018-08-03T17:50:08.422Z,11.30
2018-08-03T17:52:39.567Z,11.43
2018-08-03T17:55:11.117Z,10.98
2018-08-03T17:57:42.614Z,11.30
2018-08-03T18:00:13.976Z,10.72
2018-08-03T18:02:45.467Z,10.88
2018-08-03T18:05:16.949Z,10.78
2018-08-03T18:07:48.418Z,11.22
2018-08-03T18:10:19.925Z,12.90
2018-08-03T18:12:51.291Z,11.97
2018-08-03T18:15:22.864Z,11.68
2018-08-03T18:17:54.580Z,11.25
2018-08-03T18:20:26.170Z,12.07
2018-08-03T18:22:57.640Z,12.47
2018-08-03T18:25:29.120Z,14.43
2018-08-03T18:28:00.595Z,17.50
2018-08-03T18:30:32.057Z,13.53
2018-08-03T18:33:03.690Z,12.75
2018-08-03T18:35:35.368Z,14.87
2018-08-03T18:38:06.847Z,14.33
2018-08-03T18:40:38.370Z,13.93
2018-08-03T18:43:09.780Z,15.23
2018-08-03T18:45:41.564Z,15.40
2018-08-03T18:48:13.101Z,17.92
2018-08-03T18:50:45.167Z,17.30
2018-08-03T18:53:16.384Z,17.02
2018-08-03T18:55:48.136Z,17.27
2018-08-03T18:58:19.748Z,16.97
2018-08-03T19:00:51.308Z,15.85
2018-08-03T19:03:23.352Z,16.10
2018-08-03T19:05:54.888Z,15.78
2018-08-03T19:08:26.559Z,15.78
2018-08-03T19:10:58.017Z,15.83
2018-08-03T19:13:29.632Z,16.95
2018-08-03T19:16:01.417Z,16.35
2018-08-03T19:18:32.937Z,15.88
2018-08-03T19:21:04.446Z,16.40
2018-08-03T19:23:36.321Z,16.52
2018-08-03T19:26:07.863Z,14.73
2018-08-03T19:28:39.433Z,15.48
2018-08-03T19:31:11.083Z,15.58
2018-08-03T19:33:42.479Z,15.53
2018-08-03T19:36:14.174Z,17.40
2018-08-03T19:38:45.927Z,17.75
2018-08-03T19:41:17.316Z,18.23
2018-08-03T19:43:48.739Z,19.60
2018-08-03T19:46:20.166Z,16.17
2018-08-03T19:48:51.582Z,15.38
2018-08-03T19:51:23.083Z,15.58
2018-08-03T19:53:54.640Z,14.83
2018-08-03T19:56:26.012Z,15.35
2018-08-03T19:58:57.389Z,16.37
2018-08-03T20:01:28.892Z,16.10
2018-08-03T20:04:00.436Z,16.77
2018-08-03T20:06:32.053Z,16.20
2018-08-03T20:09:04.886Z,15.58
2018-08-03T20:11:36.479Z,14.78
2018-08-03T20:14:08.086Z,13.00
2018-08-03T20:16:39.466Z,13.88
2018-08-03T20:19:10.862Z,14.03
2018-08-03T20:21:42.605Z,13.85
2018-08-03T20:24:13.968Z,14.43
2018-08-03T20:26:45.391Z,13.70
2018-08-03T20:29:16.924Z,15.03
2018-08-03T20:31:48.662Z,15.03
2018-08-03T20:34:20.564Z,14.58
2018-08-03T20:36:51.979Z,14.28
2018-08-03T20:39:23.347Z,15.00
2018-08-03T20:41:54.664Z,14.60
2018-08-03T20:44:26.352Z,14.98
2018-08-03T20:46:57.847Z,15.72
2018-08-03T20:49:29.176Z,15.70
2018-08-03T20:52:00.786Z,16.52
2018-08-03T20:54:32.372Z,15.78
2018-08-03T20:57:03.797Z,15.23
2018-08-03T20:59:35.148Z,15.50
2018-08-03T21:02:06.823Z,15.40
2018-08-03T21:04:38.451Z,16.25
2018-08-03T21:07:09.883Z,16.77
2018-08-03T21:09:41.352Z,16.80
2018-08-03T21:12:12.711Z,16.85
2018-08-03T21:14:44.118Z,15.93
2018-08-03T21:17:16.000Z,15.95
2018-08-03T21:19:47.549Z,16.32
2018-08-03T21:22:19.351Z,16.23
2018-08-03T21:24:50.971Z,17.45
2018-08-03T21:27:22.425Z,16.00
2018-08-03T21:29:53.839Z,15.72
2018-08-03T21:32:25.302Z,17.48
2018-08-03T21:34:56.934Z,18.85
2018-08-03T21:37:28.524Z,17.98
2018-08-03T21:40:00.264Z,18.60
2018-08-03T21:42:31.879Z,18.20
2018-08-03T21:45:03.360Z,16.55
2018-08-03T21:47:35.190Z,15.45
2018-08-03T21:50:06.982Z,17.42
2018-08-03T21:52:38.454Z,18.15
2018-08-03T21:55:09.897Z,18.62
2018-08-03T21:57:41.567Z,15.90
2018-08-03T22:00:19.609Z,16.50
2018-08-03T22:02:51.151Z,17.70
2018-08-03T22:05:22.580Z,16.27
2018-08-03T22:07:54.180Z,16.67
2018-08-03T22:10:25.815Z,21.85
2018-08-03T22:12:56.861Z,19.55
2018-08-03T22:15:28.309Z,19.60
2018-08-03T22:17:59.767Z,18.35
2018-08-03T22:20:31.182Z,18.35
2018-08-03T22:23:02.844Z,18.17
2018-08-03T22:25:34.458Z,19.32
2018-08-03T22:28:06.006Z,18.30
2018-08-03T22:30:37.388Z,18.35
2018-08-03T22:33:08.852Z,18.30
2018-08-03T22:35:40.299Z,16.27
2018-08-03T22:38:11.786Z,15.63
2018-08-03T22:40:43.062Z,18.75
2018-08-03T22:43:14.530Z,16.70
2018-08-03T22:45:45.983Z,15.48
2018-08-03T22:48:17.518Z,16.32
2018-08-03T22:50:49.260Z,14.87
2018-08-03T22:53:20.623Z,15.25
2018-08-03T22:55:52.060Z,16.20
2018-08-03T22:58:23.543Z,16.62
2018-08-03T23:00:55.171Z,15.50
2018-08-03T23:03:26.716Z,15.25
2018-08-03T23:05:58.075Z,24.50
2018-08-03T23:08:30.096Z,16.67
2018-08-03T23:11:01.545Z,19.23
2018-08-03T23:13:33.092Z,18.75
2018-08-03T23:16:04.686Z,20.82
2018-08-03T23:18:36.228Z,18.30
2018-08-03T23:21:07.242Z,18.30
2018-08-03T23:23:38.576Z,16.40
2018-08-03T23:26:10.112Z,15.15
2018-08-03T23:28:42.112Z,16.32
2018-08-03T23:31:13.398Z,18.57
2018-08-03T23:33:45.052Z,16.75
2018-08-03T23:36:16.660Z,15.78
2018-08-03T23:38:48.392Z,15.88
2018-08-03T23:41:19.875Z,16.27
2018-08-03T23:43:51.428Z,16.07
2018-08-03T23:46:22.915Z,16.00
2018-08-03T23:48:54.246Z,19.65
2018-08-03T23:51:25.697Z,18.52
2018-08-03T23:53:57.228Z,16.45
2018-08-03T23:56:29.815Z,16.23
2018-08-03T23:59:01.184Z,15.60
